Weather at Bell South Airfield Heliport

Public forecast

Using degrees Fahrenheit for public forecast. Weather courtesy of forecast.io.

Closest aviation weather report (METAR) to Bell South Airfield Heliport

Closest report is Grand Prairie Municipal Airport, 7.7 nm (14.3 km) SE.

2023/03/28 19:50 (retrieved 2 hours ago)

KGPM 281950Z 01011G16KT 10SM SKC 16/00 A3035

Closest aviation forecast (TAF) to Bell South Airfield Heliport

Closest forecast is Dallas Fort Worth International Airport, 8.1 nm (15.0 km) NE.

2023/03/28 21:58 Ammendment (retrieved 0 seconds ago)

TAF AMD KDFW 282055Z 2821/2924 01013KT P6SM BKN250 FM290900 03005KT P6SM VCSH BKN250 FM291400 14006KT P6SM BKN250